<?xml version="1.0" encoding="UTF-8" standalone="no" ?><gpx xmlns="http://www.topografix.com/GPX/1/1" xmlns:gpxx="http://www.garmin.com/xmlschemas/GpxExtensions/v3" xmlns:gpxtrkx="http://www.garmin.com/xmlschemas/TrackStatsExtension/v1" xmlns:wptx1="http://www.garmin.com/xmlschemas/WaypointExtension/v1" xmlns:gpxtpx="http://www.garmin.com/xmlschemas/TrackPointExtension/v1" creator="Oregon 700" version="1.1" xmlns:xsi="http://www.w3.org/2001/XMLSchema-instance" xsi:schemaLocation="http://www.topografix.com/GPX/1/1 http://www.topografix.com/GPX/1/1/gpx.xsd http://www.garmin.com/xmlschemas/GpxExtensions/v3 http://www8.garmin.com/xmlschemas/GpxExtensionsv3.xsd http://www.garmin.com/xmlschemas/TrackStatsExtension/v1 http://www8.garmin.com/xmlschemas/TrackStatsExtension.xsd http://www.garmin.com/xmlschemas/WaypointExtension/v1 http://www8.garmin.com/xmlschemas/WaypointExtensionv1.xsd http://www.garmin.com/xmlschemas/TrackPointExtension/v1 http://www.garmin.com/xmlschemas/TrackPointExtensionv1.xsd"><metadata><link href="http://www.garmin.com"><text>Garmin International</text></link><time>2023-07-05T13:08:22Z</time></metadata><trk><name>Current Track: 05 JUL 2023 10:02</name><extensions><gpxx:TrackExtension><gpxx:DisplayColor>Cyan</gpxx:DisplayColor></gpxx:TrackExtension><gpxtrkx:TrackStatsExtension><gpxtrkx:Distance>4455.000</gpxtrkx:Distance><gpxtrkx:TimerTime>7134</gpxtrkx:TimerTime><gpxtrkx:TotalElapsedTime>14733</gpxtrkx:TotalElapsedTime><gpxtrkx:MovingTime>5534</gpxtrkx:MovingTime><gpxtrkx:StoppedTime>1600</gpxtrkx:StoppedTime><gpxtrkx:MovingSpeed>0.805</gpxtrkx:MovingSpeed><gpxtrkx:MaxSpeed>1.717</gpxtrkx:MaxSpeed><gpxtrkx:MaxElevation>41.212</gpxtrkx:MaxElevation><gpxtrkx:MinElevation>12.015</gpxtrkx:MinElevation><gpxtrkx:Ascent>45.000</gpxtrkx:Ascent><gpxtrkx:Descent>53.115</gpxtrkx:Descent><gpxtrkx:AvgAscentRate>0.023</gpxtrkx:AvgAscentRate><gpxtrkx:MaxAscentRate>0.224</gpxtrkx:MaxAscentRate><gpxtrkx:AvgDescentRate>0.023</gpxtrkx:AvgDescentRate><gpxtrkx:MaxDescentRate>-0.056</gpxtrkx:MaxDescentRate><gpxtrkx:Calories>232</gpxtrkx:Calories></gpxtrkx:TrackStatsExtension></extensions><trkseg><trkpt lat="51.9153141975" lon="-2.0488590840"><ele>26.73</ele><time>2023-07-05T09:02:49Z</time></trkpt><trkpt lat="51.9153140299" lon="-2.0488634426"><ele>25.29</ele><time>2023-07-05T09:02:55Z</time></trkpt><trkpt lat="51.9153032172" lon="-2.0488537196"><ele>25.82</ele><time>2023-07-05T09:03:16Z</time></trkpt><trkpt lat="51.9153180532" lon="-2.0488646999"><ele>25.40</ele><time>2023-07-05T09:03:41Z</time></trkpt><trkpt lat="51.9152800832" lon="-2.0488763507"><ele>25.67</ele><time>2023-07-05T09:03:59Z</time></trkpt><trkpt lat="51.9153301232" lon="-2.0488630235"><ele>25.62</ele><time>2023-07-05T09:04:19Z</time></trkpt><trkpt lat="51.9153499883" lon="-2.0488482714"><ele>25.76</ele><time>2023-07-05T09:04:44Z</time></trkpt><trkpt lat="51.9153665844" lon="-2.0488406438"><ele>25.90</ele><time>2023-07-05T09:05:09Z</time></trkpt><trkpt lat="51.9153812528" lon="-2.0487973932"><ele>25.90</ele><time>2023-07-05T09:05:37Z</time></trkpt><trkpt lat="51.9153745472" lon="-2.0488245506"><ele>25.90</ele><time>2023-07-05T09:06:03Z</time></trkpt><trkpt lat="51.9154281914" lon="-2.0489511173"><ele>25.90</ele><time>2023-07-05T09:06:23Z</time></trkpt><trkpt lat="51.9154385850" lon="-2.0489763469"><ele>25.90</ele><time>2023-07-05T09:06:44Z</time></trkpt><trkpt lat="51.9155190513" lon="-2.0489701442"><ele>25.90</ele><time>2023-07-05T09:07:05Z</time></trkpt><trkpt lat="51.9156749547" lon="-2.0489427354"><ele>25.90</ele><time>2023-07-05T09:07:27Z</time></trkpt><trkpt lat="51.9157933909" lon="-2.0489575714"><ele>25.90</ele><time>2023-07-05T09:07:47Z</time></trkpt><trkpt lat="51.9159226399" lon="-2.0489416458"><ele>25.90</ele><time>2023-07-05T09:08:06Z</time></trkpt><trkpt lat="51.9160488714" lon="-2.0488987304"><ele>25.41</ele><time>2023-07-05T09:08:25Z</time></trkpt><trkpt lat="51.9161538966" lon="-2.0488284901"><ele>24.25</ele><time>2023-07-05T09:08:40Z</time></trkpt><trkpt lat="51.9162729196" lon="-2.0488174260"><ele>24.32</ele><time>2023-07-05T09:08:56Z</time></trkpt><trkpt lat="51.9163763523" lon="-2.0487678889"><ele>23.82</ele><time>2023-07-05T09:09:10Z</time></trkpt><trkpt lat="51.9164822157" lon="-2.0487634465"><ele>23.87</ele><time>2023-07-05T09:09:26Z</time></trkpt><trkpt lat="51.9166118000" lon="-2.0487411506"><ele>23.77</ele><time>2023-07-05T09:09:44Z</time></trkpt><trkpt lat="51.9167378638" lon="-2.0487203635"><ele>23.97</ele><time>2023-07-05T09:10:05Z</time></trkpt><trkpt lat="51.9168344233" lon="-2.0486858301"><ele>24.48</ele><time>2023-07-05T09:10:23Z</time></trkpt><trkpt lat="51.9169102795" lon="-2.0486596785"><ele>23.99</ele><time>2023-07-05T09:10:39Z</time></trkpt><trkpt lat="51.9170048274" lon="-2.0486110635"><ele>24.13</ele><time>2023-07-05T09:10:57Z</time></trkpt><trkpt lat="51.9170016423" lon="-2.0486006700"><ele>24.25</ele><time>2023-07-05T09:11:19Z</time></trkpt><trkpt lat="51.9170396123" lon="-2.0486103930"><ele>24.25</ele><time>2023-07-05T09:11:43Z</time></trkpt><trkpt lat="51.9170258660" lon="-2.0486196969"><ele>24.25</ele><time>2023-07-05T09:12:00Z</time></trkpt><trkpt lat="51.9170279615" lon="-2.0486149192"><ele>24.25</ele><time>2023-07-05T09:12:20Z</time></trkpt><trkpt lat="51.9171230961" lon="-2.0486737601"><ele>24.25</ele><time>2023-07-05T09:12:43Z</time></trkpt><trkpt lat="51.9170702063" lon="-2.0486694854"><ele>24.24</ele><time>2023-07-05T09:12:53Z</time></trkpt><trkpt lat="51.9170819409" lon="-2.0486874226"><ele>23.97</ele><time>2023-07-05T09:13:11Z</time></trkpt><trkpt lat="51.9170933403" lon="-2.0486875903"><ele>23.98</ele><time>2023-07-05T09:13:12Z</time></trkpt><trkpt lat="51.9172247685" lon="-2.0486008376"><ele>24.53</ele><time>2023-07-05T09:13:27Z</time></trkpt><trkpt lat="51.9173957594" lon="-2.0485186949"><ele>24.66</ele><time>2023-07-05T09:13:42Z</time></trkpt><trkpt lat="51.9175295345" lon="-2.0483929664"><ele>24.69</ele><time>2023-07-05T09:13:56Z</time></trkpt><trkpt lat="51.9176919758" lon="-2.0483786333"><ele>25.01</ele><time>2023-07-05T09:14:11Z</time></trkpt><trkpt lat="51.9178655650" lon="-2.0483674016"><ele>26.06</ele><time>2023-07-05T09:14:34Z</time></trkpt><trkpt lat="51.9179954007" lon="-2.0483366400"><ele>26.40</ele><time>2023-07-05T09:14:51Z</time></trkpt><trkpt lat="51.9181603566" lon="-2.0483793039"><ele>27.18</ele><time>2023-07-05T09:15:10Z</time></trkpt><trkpt lat="51.9182946347" lon="-2.0484245662"><ele>27.67</ele><time>2023-07-05T09:15:25Z</time></trkpt><trkpt lat="51.9184544776" lon="-2.0483580139"><ele>28.51</ele><time>2023-07-05T09:15:44Z</time></trkpt><trkpt lat="51.9185180962" lon="-2.0483290125"><ele>28.55</ele><time>2023-07-05T09:15:51Z</time></trkpt><trkpt lat="51.9186317548" lon="-2.0483028609"><ele>29.17</ele><time>2023-07-05T09:16:07Z</time></trkpt><trkpt lat="51.9187190942" lon="-2.0482782181"><ele>29.54</ele><time>2023-07-05T09:16:22Z</time></trkpt><trkpt lat="51.9188565575" lon="-2.0482811518"><ele>29.57</ele><time>2023-07-05T09:16:39Z</time></trkpt><trkpt lat="51.9189656898" lon="-2.0485815592"><ele>29.15</ele><time>2023-07-05T09:16:54Z</time></trkpt><trkpt lat="51.9190338347" lon="-2.0488231257"><ele>29.25</ele><time>2023-07-05T09:17:12Z</time></trkpt><trkpt lat="51.9191070087" lon="-2.0490568131"><ele>29.25</ele><time>2023-07-05T09:17:31Z</time></trkpt><trkpt lat="51.9191537797" lon="-2.0492534526"><ele>29.06</ele><time>2023-07-05T09:17:48Z</time></trkpt><trkpt lat="51.9191699568" lon="-2.0494847931"><ele>28.93</ele><time>2023-07-05T09:18:06Z</time></trkpt><trkpt lat="51.9192042388" lon="-2.0496872999"><ele>28.71</ele><time>2023-07-05T09:18:24Z</time></trkpt><trkpt lat="51.9192505907" lon="-2.0498603024"><ele>28.58</ele><time>2023-07-05T09:18:37Z</time></trkpt><trkpt lat="51.9193014689" lon="-2.0500554331"><ele>28.13</ele><time>2023-07-05T09:18:54Z</time></trkpt><trkpt lat="51.9193002954" lon="-2.0502162818"><ele>27.75</ele><time>2023-07-05T09:19:06Z</time></trkpt><trkpt lat="51.9193265308" lon="-2.0503850933"><ele>27.20</ele><time>2023-07-05T09:19:19Z</time></trkpt><trkpt lat="51.9194259401" lon="-2.0504846703"><ele>26.66</ele><time>2023-07-05T09:19:36Z</time></trkpt><trkpt lat="51.9194389321" lon="-2.0505793858"><ele>26.11</ele><time>2023-07-05T09:19:55Z</time></trkpt><trkpt lat="51.9195438735" lon="-2.0507761091"><ele>25.59</ele><time>2023-07-05T09:20:13Z</time></trkpt><trkpt lat="51.9196307939" lon="-2.0509624388"><ele>25.09</ele><time>2023-07-05T09:20:30Z</time></trkpt><trkpt lat="51.9196355715" lon="-2.0509748440"><ele>25.07</ele><time>2023-07-05T09:20:31Z</time></trkpt><trkpt lat="51.9196933229" lon="-2.0510915201"><ele>24.65</ele><time>2023-07-05T09:20:45Z</time></trkpt><trkpt lat="51.9197449554" lon="-2.0511636883"><ele>24.00</ele><time>2023-07-05T09:21:03Z</time></trkpt><trkpt lat="51.9197892956" lon="-2.0511611737"><ele>23.77</ele><time>2023-07-05T09:21:25Z</time></trkpt><trkpt lat="51.9198934827" lon="-2.0511570666"><ele>24.18</ele><time>2023-07-05T09:21:40Z</time></trkpt><trkpt lat="51.9199549221" lon="-2.0511352737"><ele>24.85</ele><time>2023-07-05T09:21:51Z</time></trkpt><trkpt lat="51.9200627133" lon="-2.0510986447"><ele>25.37</ele><time>2023-07-05T09:22:05Z</time></trkpt><trkpt lat="51.9201901183" lon="-2.0510177594"><ele>25.54</ele><time>2023-07-05T09:22:23Z</time></trkpt><trkpt lat="51.9202956464" lon="-2.0509808790"><ele>25.35</ele><time>2023-07-05T09:22:39Z</time></trkpt><trkpt lat="51.9204709958" lon="-2.0509130694"><ele>25.57</ele><time>2023-07-05T09:23:00Z</time></trkpt><trkpt lat="51.9206309225" lon="-2.0509260613"><ele>25.57</ele><time>2023-07-05T09:23:16Z</time></trkpt><trkpt lat="51.9207272306" lon="-2.0508595929"><ele>25.31</ele><time>2023-07-05T09:23:30Z</time></trkpt><trkpt lat="51.9209107105" lon="-2.0507680625"><ele>24.88</ele><time>2023-07-05T09:23:53Z</time></trkpt><trkpt lat="51.9210464135" lon="-2.0508186892"><ele>24.94</ele><time>2023-07-05T09:24:07Z</time></trkpt><trkpt lat="51.9210577291" lon="-2.0507984888"><ele>24.95</ele><time>2023-07-05T09:24:27Z</time></trkpt><trkpt lat="51.9211031590" lon="-2.0507742651"><ele>24.95</ele><time>2023-07-05T09:24:45Z</time></trkpt><trkpt lat="51.9212205056" lon="-2.0507073775"><ele>24.56</ele><time>2023-07-05T09:25:01Z</time></trkpt><trkpt lat="51.9213363435" lon="-2.0506771188"><ele>24.04</ele><time>2023-07-05T09:25:17Z</time></trkpt><trkpt lat="51.9213930052" lon="-2.0506588463"><ele>23.81</ele><time>2023-07-05T09:25:32Z</time></trkpt><trkpt lat="51.9214652572" lon="-2.0506731793"><ele>23.78</ele><time>2023-07-05T09:25:46Z</time></trkpt><trkpt lat="51.9215814304" lon="-2.0506611094"><ele>23.42</ele><time>2023-07-05T09:26:00Z</time></trkpt><trkpt lat="51.9217190612" lon="-2.0506827347"><ele>22.84</ele><time>2023-07-05T09:26:16Z</time></trkpt><trkpt lat="51.9218265172" lon="-2.0507243928"><ele>22.09</ele><time>2023-07-05T09:26:29Z</time></trkpt><trkpt lat="51.9219440315" lon="-2.0507559087"><ele>21.61</ele><time>2023-07-05T09:26:46Z</time></trkpt><trkpt lat="51.9220319577" lon="-2.0507798810"><ele>20.79</ele><time>2023-07-05T09:27:03Z</time></trkpt><trkpt lat="51.9220299460" lon="-2.0508199465"><ele>20.70</ele><time>2023-07-05T09:27:21Z</time></trkpt><trkpt lat="51.9220781419" lon="-2.0508212037"><ele>20.74</ele><time>2023-07-05T09:27:36Z</time></trkpt><trkpt lat="51.9221229013" lon="-2.0508548152"><ele>20.63</ele><time>2023-07-05T09:27:41Z</time></trkpt><trkpt lat="51.9221665710" lon="-2.0509002451"><ele>20.49</ele><time>2023-07-05T09:27:47Z</time></trkpt><trkpt lat="51.9221898727" lon="-2.0509258937"><ele>20.44</ele><time>2023-07-05T09:27:50Z</time></trkpt><trkpt lat="51.9223023579" lon="-2.0511382073"><ele>19.95</ele><time>2023-07-05T09:28:04Z</time></trkpt><trkpt lat="51.9224092271" lon="-2.0513400435"><ele>19.74</ele><time>2023-07-05T09:28:18Z</time></trkpt><trkpt lat="51.9225056190" lon="-2.0515124593"><ele>19.47</ele><time>2023-07-05T09:28:31Z</time></trkpt><trkpt lat="51.9225643761" lon="-2.0516005531"><ele>19.26</ele><time>2023-07-05T09:28:38Z</time></trkpt><trkpt lat="51.9225801341" lon="-2.0516232681"><ele>19.09</ele><time>2023-07-05T09:28:40Z</time></trkpt><trkpt lat="51.9226810522" lon="-2.0517615695"><ele>18.09</ele><time>2023-07-05T09:28:56Z</time></trkpt><trkpt lat="51.9226984866" lon="-2.0517983660"><ele>17.67</ele><time>2023-07-05T09:29:00Z</time></trkpt><trkpt lat="51.9228090439" lon="-2.0519789960"><ele>17.06</ele><time>2023-07-05T09:29:17Z</time></trkpt><trkpt lat="51.9229079504" lon="-2.0521355700"><ele>16.80</ele><time>2023-07-05T09:29:36Z</time></trkpt><trkpt lat="51.9229145721" lon="-2.0521763060"><ele>16.58</ele><time>2023-07-05T09:29:54Z</time></trkpt><trkpt lat="51.9229060225" lon="-2.0522426907"><ele>16.69</ele><time>2023-07-05T09:30:19Z</time></trkpt><trkpt lat="51.9230097067" lon="-2.0524154417"><ele>16.83</ele><time>2023-07-05T09:30:40Z</time></trkpt><trkpt lat="51.9231014047" lon="-2.0524834190"><ele>16.58</ele><time>2023-07-05T09:30:53Z</time></trkpt><trkpt lat="51.9231787696" lon="-2.0525851753"><ele>16.98</ele><time>2023-07-05T09:31:05Z</time></trkpt><trkpt lat="51.9232435618" lon="-2.0526946429"><ele>17.44</ele><time>2023-07-05T09:31:15Z</time></trkpt><trkpt lat="51.9233277999" lon="-2.0528968982"><ele>16.98</ele><time>2023-07-05T09:31:32Z</time></trkpt><trkpt lat="51.9234277122" lon="-2.0530333556"><ele>16.07</ele><time>2023-07-05T09:31:53Z</time></trkpt><trkpt lat="51.9235074241" lon="-2.0531351119"><ele>16.21</ele><time>2023-07-05T09:32:06Z</time></trkpt><trkpt lat="51.9236255251" lon="-2.0532537997"><ele>15.67</ele><time>2023-07-05T09:32:27Z</time></trkpt><trkpt lat="51.9238051493" lon="-2.0534117986"><ele>14.94</ele><time>2023-07-05T09:32:49Z</time></trkpt><trkpt lat="51.9238398504" lon="-2.0534500200"><ele>14.61</ele><time>2023-07-05T09:33:06Z</time></trkpt><trkpt lat="51.9238815922" lon="-2.0534558035"><ele>14.19</ele><time>2023-07-05T09:33:26Z</time></trkpt><trkpt lat="51.9238732941" lon="-2.0534440689"><ele>13.94</ele><time>2023-07-05T09:33:56Z</time></trkpt><trkpt lat="51.9238785747" lon="-2.0534469187"><ele>13.71</ele><time>2023-07-05T09:34:29Z</time></trkpt><trkpt lat="51.9238815922" lon="-2.0534356870"><ele>14.08</ele><time>2023-07-05T09:35:04Z</time></trkpt><trkpt lat="51.9238828495" lon="-2.0534515288"><ele>14.02</ele><time>2023-07-05T09:35:37Z</time></trkpt><trkpt lat="51.9238875434" lon="-2.0534651075"><ele>14.27</ele><time>2023-07-05T09:36:08Z</time></trkpt><trkpt lat="51.9239202328" lon="-2.0534376986"><ele>14.27</ele><time>2023-07-05T09:36:54Z</time></trkpt><trkpt lat="51.9239060674" lon="-2.0534456614"><ele>14.27</ele><time>2023-07-05T09:37:20Z</time></trkpt><trkpt lat="51.9238924887" lon="-2.0534678735"><ele>14.27</ele><time>2023-07-05T09:37:52Z</time></trkpt><trkpt lat="51.9238781556" lon="-2.0534469187"><ele>14.27</ele><time>2023-07-05T09:38:23Z</time></trkpt><trkpt lat="51.9238895550" lon="-2.0534622576"><ele>14.27</ele><time>2023-07-05T09:38:53Z</time></trkpt><trkpt lat="51.9238939974" lon="-2.0535043348"><ele>14.27</ele><time>2023-07-05T09:39:22Z</time></trkpt><trkpt lat="51.9239177182" lon="-2.0534936897"><ele>14.27</ele><time>2023-07-05T09:39:41Z</time></trkpt><trkpt lat="51.9239595439" lon="-2.0536105335"><ele>14.27</ele><time>2023-07-05T09:40:04Z</time></trkpt><trkpt lat="51.9240580313" lon="-2.0537577197"><ele>14.27</ele><time>2023-07-05T09:40:29Z</time></trkpt><trkpt lat="51.9242036249" lon="-2.0539088454"><ele>14.27</ele><time>2023-07-05T09:40:50Z</time></trkpt><trkpt lat="51.9243301917" lon="-2.0540837757"><ele>12.64</ele><time>2023-07-05T09:41:12Z</time></trkpt><trkpt lat="51.9244236499" lon="-2.0542299561"><ele>12.58</ele><time>2023-07-05T09:41:28Z</time></trkpt><trkpt lat="51.9244814012" lon="-2.0543191396"><ele>12.14</ele><time>2023-07-05T09:41:51Z</time></trkpt><trkpt lat="51.9245451037" lon="-2.0544101670"><ele>12.18</ele><time>2023-07-05T09:42:05Z</time></trkpt><trkpt lat="51.9247150049" lon="-2.0545959938"><ele>12.42</ele><time>2023-07-05T09:42:25Z</time></trkpt><trkpt lat="51.9248494506" lon="-2.0547248237"><ele>12.41</ele><time>2023-07-05T09:42:44Z</time></trkpt><trkpt lat="51.9248626102" lon="-2.0547428448"><ele>12.00</ele><time>2023-07-05T09:43:02Z</time></trkpt><trkpt lat="51.9248968083" lon="-2.0546478778"><ele>12.00</ele><time>2023-07-05T09:43:26Z</time></trkpt><trkpt lat="51.9248460978" lon="-2.0545805711"><ele>12.00</ele><time>2023-07-05T09:43:50Z</time></trkpt><trkpt lat="51.9248185214" lon="-2.0544706006"><ele>12.00</ele><time>2023-07-05T09:44:02Z</time></trkpt><trkpt lat="51.9247921184" lon="-2.0543415193"><ele>12.00</ele><time>2023-07-05T09:44:20Z</time></trkpt><trkpt lat="51.9247652963" lon="-2.0542002842"><ele>12.00</ele><time>2023-07-05T09:44:36Z</time></trkpt><trkpt lat="51.9247793779" lon="-2.0541566145"><ele>12.00</ele><time>2023-07-05T09:44:57Z</time></trkpt><trkpt lat="51.9247601833" lon="-2.0541450474"><ele>12.00</ele><time>2023-07-05T09:45:24Z</time></trkpt><trkpt lat="51.9247585908" lon="-2.0540454704"><ele>15.05</ele><time>2023-07-05T09:45:31Z</time></trkpt><trkpt lat="51.9247570820" lon="-2.0539875515"><ele>14.62</ele><time>2023-07-05T09:45:35Z</time></trkpt><trkpt lat="51.9247600157" lon="-2.0538795926"><ele>14.21</ele><time>2023-07-05T09:45:41Z</time></trkpt><trkpt lat="51.9247201178" lon="-2.0536282193"><ele>14.73</ele><time>2023-07-05T09:45:57Z</time></trkpt><trkpt lat="51.9246934634" lon="-2.0533374511"><ele>15.59</ele><time>2023-07-05T09:46:14Z</time></trkpt><trkpt lat="51.9247005880" lon="-2.0532860700"><ele>16.04</ele><time>2023-07-05T09:46:33Z</time></trkpt><trkpt lat="51.9246882666" lon="-2.0532061066"><ele>15.85</ele><time>2023-07-05T09:46:52Z</time></trkpt><trkpt lat="51.9246740174" lon="-2.0530340262"><ele>15.99</ele><time>2023-07-05T09:47:02Z</time></trkpt><trkpt lat="51.9246548228" lon="-2.0527317747"><ele>17.03</ele><time>2023-07-05T09:47:19Z</time></trkpt><trkpt lat="51.9246279169" lon="-2.0524547528"><ele>17.66</ele><time>2023-07-05T09:47:38Z</time></trkpt><trkpt lat="51.9245819841" lon="-2.0522270165"><ele>17.73</ele><time>2023-07-05T09:47:55Z</time></trkpt><trkpt lat="51.9245523959" lon="-2.0521669183"><ele>18.11</ele><time>2023-07-05T09:48:13Z</time></trkpt><trkpt lat="51.9245269988" lon="-2.0521076582"><ele>18.45</ele><time>2023-07-05T09:48:22Z</time></trkpt><trkpt lat="51.9245284237" lon="-2.0520517509"><ele>18.37</ele><time>2023-07-05T09:48:26Z</time></trkpt><trkpt lat="51.9244704209" lon="-2.0517370105"><ele>18.09</ele><time>2023-07-05T09:48:44Z</time></trkpt><trkpt lat="51.9244195428" lon="-2.0514741540"><ele>18.21</ele><time>2023-07-05T09:49:00Z</time></trkpt><trkpt lat="51.9243460335" lon="-2.0512049273"><ele>18.25</ele><time>2023-07-05T09:49:17Z</time></trkpt><trkpt lat="51.9243387412" lon="-2.0511085354"><ele>18.39</ele><time>2023-07-05T09:49:34Z</time></trkpt><trkpt lat="51.9243264198" lon="-2.0510342717"><ele>18.39</ele><time>2023-07-05T09:49:56Z</time></trkpt><trkpt lat="51.9243204687" lon="-2.0510040130"><ele>18.38</ele><time>2023-07-05T09:49:58Z</time></trkpt><trkpt lat="51.9242846780" lon="-2.0508981496"><ele>18.21</ele><time>2023-07-05T09:50:05Z</time></trkpt><trkpt lat="51.9242555089" lon="-2.0508073736"><ele>18.39</ele><time>2023-07-05T09:50:15Z</time></trkpt><trkpt lat="51.9242360629" lon="-2.0507646259"><ele>18.37</ele><time>2023-07-05T09:50:18Z</time></trkpt><trkpt lat="51.9241209794" lon="-2.0505100675"><ele>18.61</ele><time>2023-07-05T09:50:37Z</time></trkpt><trkpt lat="51.9240456261" lon="-2.0502744522"><ele>18.66</ele><time>2023-07-05T09:50:53Z</time></trkpt><trkpt lat="51.9239762239" lon="-2.0500227436"><ele>18.78</ele><time>2023-07-05T09:51:09Z</time></trkpt><trkpt lat="51.9239189755" lon="-2.0498232543"><ele>18.85</ele><time>2023-07-05T09:51:25Z</time></trkpt><trkpt lat="51.9239199813" lon="-2.0498262718"><ele>14.47</ele><time>2023-07-05T09:51:33Z</time></trkpt><trkpt lat="51.9239274412" lon="-2.0498330612"><ele>15.18</ele><time>2023-07-05T09:51:39Z</time></trkpt><trkpt lat="51.9239416905" lon="-2.0498458017"><ele>18.26</ele><time>2023-07-05T09:51:50Z</time></trkpt><trkpt lat="51.9239400141" lon="-2.0498297084"><ele>22.20</ele><time>2023-07-05T09:51:57Z</time></trkpt><trkpt lat="51.9239123538" lon="-2.0497804228"><ele>23.69</ele><time>2023-07-05T09:52:00Z</time></trkpt><trkpt lat="51.9238851964" lon="-2.0497360826"><ele>22.53</ele><time>2023-07-05T09:52:04Z</time></trkpt><trkpt lat="51.9238534290" lon="-2.0496779960"><ele>19.78</ele><time>2023-07-05T09:52:09Z</time></trkpt><trkpt lat="51.9237502478" lon="-2.0494153909"><ele>18.43</ele><time>2023-07-05T09:52:26Z</time></trkpt><trkpt lat="51.9237134513" lon="-2.0491778478"><ele>18.58</ele><time>2023-07-05T09:52:40Z</time></trkpt><trkpt lat="51.9236727152" lon="-2.0490454137"><ele>18.57</ele><time>2023-07-05T09:52:48Z</time></trkpt><trkpt lat="51.9235694502" lon="-2.0487893466"><ele>18.63</ele><time>2023-07-05T09:53:06Z</time></trkpt><trkpt lat="51.9234741479" lon="-2.0485395659"><ele>18.10</ele><time>2023-07-05T09:53:23Z</time></trkpt><trkpt lat="51.9234607369" lon="-2.0483777113"><ele>18.52</ele><time>2023-07-05T09:53:38Z</time></trkpt><trkpt lat="51.9234668557" lon="-2.0483011845"><ele>18.52</ele><time>2023-07-05T09:53:49Z</time></trkpt><trkpt lat="51.9234793447" lon="-2.0482057985"><ele>18.50</ele><time>2023-07-05T09:54:04Z</time></trkpt><trkpt lat="51.9235040713" lon="-2.0481702592"><ele>18.53</ele><time>2023-07-05T09:54:25Z</time></trkpt><trkpt lat="51.9235419575" lon="-2.0481273439"><ele>18.66</ele><time>2023-07-05T09:54:37Z</time></trkpt><trkpt lat="51.9236165565" lon="-2.0480930619"><ele>18.78</ele><time>2023-07-05T09:54:45Z</time></trkpt><trkpt lat="51.9237400219" lon="-2.0480763819"><ele>19.68</ele><time>2023-07-05T09:54:58Z</time></trkpt><trkpt lat="51.9239191432" lon="-2.0480441954"><ele>20.82</ele><time>2023-07-05T09:55:23Z</time></trkpt><trkpt lat="51.9240314607" lon="-2.0479237475"><ele>21.66</ele><time>2023-07-05T09:55:45Z</time></trkpt><trkpt lat="51.9241267629" lon="-2.0477939118"><ele>21.97</ele><time>2023-07-05T09:56:05Z</time></trkpt><trkpt lat="51.9241789822" lon="-2.0476580411"><ele>22.20</ele><time>2023-07-05T09:56:22Z</time></trkpt><trkpt lat="51.9242086541" lon="-2.0474667661"><ele>22.62</ele><time>2023-07-05T09:56:37Z</time></trkpt><trkpt lat="51.9242453668" lon="-2.0472518541"><ele>22.86</ele><time>2023-07-05T09:56:56Z</time></trkpt><trkpt lat="51.9242704287" lon="-2.0470881555"><ele>23.29</ele><time>2023-07-05T09:57:14Z</time></trkpt><trkpt lat="51.9243170321" lon="-2.0468689688"><ele>24.30</ele><time>2023-07-05T09:57:34Z</time></trkpt><trkpt lat="51.9243409205" lon="-2.0466319285"><ele>24.32</ele><time>2023-07-05T09:57:57Z</time></trkpt><trkpt lat="51.9243743643" lon="-2.0464814734"><ele>25.18</ele><time>2023-07-05T09:58:15Z</time></trkpt><trkpt lat="51.9244392402" lon="-2.0463067945"><ele>25.69</ele><time>2023-07-05T09:58:31Z</time></trkpt><trkpt lat="51.9245054573" lon="-2.0461246558"><ele>26.29</ele><time>2023-07-05T09:58:51Z</time></trkpt><trkpt lat="51.9245675672" lon="-2.0459249988"><ele>26.50</ele><time>2023-07-05T09:59:09Z</time></trkpt><trkpt lat="51.9246300962" lon="-2.0457558520"><ele>26.94</ele><time>2023-07-05T09:59:31Z</time></trkpt><trkpt lat="51.9247088023" lon="-2.0455251820"><ele>27.38</ele><time>2023-07-05T09:59:53Z</time></trkpt><trkpt lat="51.9247769471" lon="-2.0453197416"><ele>27.52</ele><time>2023-07-05T10:00:16Z</time></trkpt><trkpt lat="51.9248539768" lon="-2.0450941008"><ele>27.72</ele><time>2023-07-05T10:00:38Z</time></trkpt><trkpt lat="51.9249768555" lon="-2.0448626764"><ele>27.88</ele><time>2023-07-05T10:01:05Z</time></trkpt><trkpt lat="51.9250848144" lon="-2.0447031688"><ele>29.11</ele><time>2023-07-05T10:01:25Z</time></trkpt><trkpt lat="51.9251641072" lon="-2.0446271449"><ele>29.25</ele><time>2023-07-05T10:01:36Z</time></trkpt><trkpt lat="51.9252546318" lon="-2.0444735885"><ele>29.67</ele><time>2023-07-05T10:01:54Z</time></trkpt><trkpt lat="51.9253709726" lon="-2.0442746021"><ele>30.20</ele><time>2023-07-05T10:02:14Z</time></trkpt><trkpt lat="51.9254663587" lon="-2.0441153459"><ele>30.58</ele><time>2023-07-05T10:02:32Z</time></trkpt><trkpt lat="51.9255860522" lon="-2.0439266693"><ele>31.12</ele><time>2023-07-05T10:02:52Z</time></trkpt><trkpt lat="51.9256916642" lon="-2.0437791478"><ele>31.58</ele><time>2023-07-05T10:03:08Z</time></trkpt><trkpt lat="51.9257729687" lon="-2.0436423551"><ele>32.09</ele><time>2023-07-05T10:03:23Z</time></trkpt><trkpt lat="51.9258726295" lon="-2.0435026288"><ele>32.49</ele><time>2023-07-05T10:03:39Z</time></trkpt><trkpt lat="51.9259446301" lon="-2.0433929097"><ele>33.62</ele><time>2023-07-05T10:03:53Z</time></trkpt><trkpt lat="51.9260317180" lon="-2.0432504173"><ele>34.01</ele><time>2023-07-05T10:04:09Z</time></trkpt><trkpt lat="51.9261105917" lon="-2.0431370102"><ele>35.08</ele><time>2023-07-05T10:04:27Z</time></trkpt><trkpt lat="51.9262210652" lon="-2.0429996308"><ele>35.82</ele><time>2023-07-05T10:04:46Z</time></trkpt><trkpt lat="51.9262421038" lon="-2.0429418795"><ele>36.24</ele><time>2023-07-05T10:05:06Z</time></trkpt><trkpt lat="51.9262172934" lon="-2.0429314021"><ele>36.07</ele><time>2023-07-05T10:05:22Z</time></trkpt><trkpt lat="51.9262170419" lon="-2.0429339167"><ele>35.61</ele><time>2023-07-05T10:05:45Z</time></trkpt><trkpt lat="51.9262272678" lon="-2.0429011434"><ele>32.05</ele><time>2023-07-05T10:06:03Z</time></trkpt><trkpt lat="51.9262253400" lon="-2.0428989641"><ele>28.77</ele><time>2023-07-05T10:06:05Z</time></trkpt><trkpt lat="51.9262259267" lon="-2.0428826194"><ele>34.22</ele><time>2023-07-05T10:06:09Z</time></trkpt><trkpt lat="51.9262299500" lon="-2.0428797696"><ele>38.30</ele><time>2023-07-05T10:06:11Z</time></trkpt><trkpt lat="51.9262327161" lon="-2.0428764168"><ele>39.40</ele><time>2023-07-05T10:06:13Z</time></trkpt><trkpt lat="51.9262839295" lon="-2.0428268798"><ele>36.33</ele><time>2023-07-05T10:06:24Z</time></trkpt><trkpt lat="51.9263807405" lon="-2.0426772628"><ele>36.23</ele><time>2023-07-05T10:06:40Z</time></trkpt><trkpt lat="51.9265226461" lon="-2.0426001493"><ele>36.57</ele><time>2023-07-05T10:06:58Z</time></trkpt><trkpt lat="51.9265842531" lon="-2.0425294898"><ele>36.02</ele><time>2023-07-05T10:07:17Z</time></trkpt><trkpt lat="51.9265218917" lon="-2.0424809586"><ele>36.02</ele><time>2023-07-05T10:07:35Z</time></trkpt><trkpt lat="51.9264517352" lon="-2.0424718224"><ele>35.91</ele><time>2023-07-05T10:07:53Z</time></trkpt><trkpt lat="51.9264462031" lon="-2.0424602553"><ele>35.58</ele><time>2023-07-05T10:08:15Z</time></trkpt><trkpt lat="51.9264597818" lon="-2.0424567349"><ele>36.05</ele><time>2023-07-05T10:08:40Z</time></trkpt><trkpt lat="51.9264554232" lon="-2.0424379595"><ele>35.75</ele><time>2023-07-05T10:09:10Z</time></trkpt><trkpt lat="51.9264895376" lon="-2.0424710680"><ele>35.75</ele><time>2023-07-05T10:09:36Z</time></trkpt><trkpt lat="51.9264594465" lon="-2.0424376242"><ele>35.75</ele><time>2023-07-05T10:10:01Z</time></trkpt><trkpt lat="51.9264723547" lon="-2.0424470957"><ele>35.75</ele><time>2023-07-05T10:10:26Z</time></trkpt><trkpt lat="51.9264704268" lon="-2.0424809586"><ele>35.75</ele><time>2023-07-05T10:10:50Z</time></trkpt><trkpt lat="51.9264765456" lon="-2.0425176714"><ele>35.75</ele><time>2023-07-05T10:11:10Z</time></trkpt><trkpt lat="51.9264931418" lon="-2.0425521210"><ele>35.75</ele><time>2023-07-05T10:11:32Z</time></trkpt><trkpt lat="51.9264944829" lon="-2.0424771030"><ele>38.50</ele><time>2023-07-05T10:11:44Z</time></trkpt><trkpt lat="51.9264995120" lon="-2.0424849819"><ele>38.72</ele><time>2023-07-05T10:11:45Z</time></trkpt><trkpt lat="51.9264594465" lon="-2.0425382908"><ele>36.59</ele><time>2023-07-05T10:11:56Z</time></trkpt><trkpt lat="51.9264445268" lon="-2.0425046794"><ele>36.35</ele><time>2023-07-05T10:12:20Z</time></trkpt><trkpt lat="51.9264533278" lon="-2.0424616802"><ele>35.14</ele><time>2023-07-05T10:12:33Z</time></trkpt><trkpt lat="51.9264657330" lon="-2.0424681343"><ele>35.30</ele><time>2023-07-05T10:12:55Z</time></trkpt><trkpt lat="51.9264193811" lon="-2.0424079522"><ele>35.23</ele><time>2023-07-05T10:13:26Z</time></trkpt><trkpt lat="51.9264156930" lon="-2.0424158312"><ele>34.85</ele><time>2023-07-05T10:13:59Z</time></trkpt><trkpt lat="51.9264193811" lon="-2.0424294099"><ele>34.85</ele><time>2023-07-05T10:14:30Z</time></trkpt><trkpt lat="51.9264288526" lon="-2.0424281526"><ele>35.07</ele><time>2023-07-05T10:15:07Z</time></trkpt><trkpt lat="51.9264437724" lon="-2.0423557330"><ele>35.07</ele><time>2023-07-05T10:15:34Z</time></trkpt><trkpt lat="51.9264680799" lon="-2.0423164219"><ele>35.07</ele><time>2023-07-05T10:16:02Z</time></trkpt><trkpt lat="51.9264813233" lon="-2.0423129853"><ele>35.07</ele><time>2023-07-05T10:16:29Z</time></trkpt><trkpt lat="51.9264624640" lon="-2.0422798768"><ele>35.07</ele><time>2023-07-05T10:17:00Z</time></trkpt><trkpt lat="51.9264511485" lon="-2.0423158351"><ele>35.07</ele><time>2023-07-05T10:17:30Z</time></trkpt><trkpt lat="51.9264907110" lon="-2.0423014183"><ele>35.07</ele><time>2023-07-05T10:17:59Z</time></trkpt><trkpt lat="51.9264254998" lon="-2.0422822237"><ele>35.07</ele><time>2023-07-05T10:18:27Z</time></trkpt><trkpt lat="51.9264185429" lon="-2.0423092972"><ele>35.07</ele><time>2023-07-05T10:18:56Z</time></trkpt><trkpt lat="51.9264606200" lon="-2.0423116442"><ele>35.07</ele><time>2023-07-05T10:19:26Z</time></trkpt><trkpt lat="51.9264698401" lon="-2.0422339439"><ele>35.07</ele><time>2023-07-05T10:19:53Z</time></trkpt><trkpt lat="51.9264379889" lon="-2.0422034338"><ele>35.07</ele><time>2023-07-05T10:20:23Z</time></trkpt><trkpt lat="51.9264410064" lon="-2.0422581676"><ele>35.07</ele><time>2023-07-05T10:20:40Z</time></trkpt><trkpt lat="51.9264677446" lon="-2.0424318407"><ele>33.65</ele><time>2023-07-05T10:21:21Z</time></trkpt><trkpt lat="51.9264617097" lon="-2.0424372051"><ele>33.17</ele><time>2023-07-05T10:21:59Z</time></trkpt><trkpt lat="51.9264586084" lon="-2.0424281526"><ele>33.17</ele><time>2023-07-05T10:22:31Z</time></trkpt><trkpt lat="51.9264640566" lon="-2.0424344391"><ele>33.17</ele><time>2023-07-05T10:23:03Z</time></trkpt><trkpt lat="51.9264667388" lon="-2.0424490236"><ele>33.17</ele><time>2023-07-05T10:23:31Z</time></trkpt><trkpt lat="51.9264627155" lon="-2.0424650330"><ele>33.17</ele><time>2023-07-05T10:23:44Z</time></trkpt><trkpt lat="51.9264614582" lon="-2.0424637757"><ele>33.17</ele><time>2023-07-05T10:24:14Z</time></trkpt><trkpt lat="51.9264498074" lon="-2.0424517058"><ele>33.17</ele><time>2023-07-05T10:24:42Z</time></trkpt><trkpt lat="51.9264555071" lon="-2.0425503608"><ele>33.17</ele><time>2023-07-05T10:25:01Z</time></trkpt><trkpt lat="51.9264669064" lon="-2.0426081959"><ele>33.86</ele><time>2023-07-05T10:25:05Z</time></trkpt><trkpt lat="51.9264875259" lon="-2.0427230280"><ele>34.70</ele><time>2023-07-05T10:25:15Z</time></trkpt><trkpt lat="51.9264993444" lon="-2.0427418035"><ele>34.72</ele><time>2023-07-05T10:25:17Z</time></trkpt><trkpt lat="51.9265260827" lon="-2.0427783486"><ele>34.71</ele><time>2023-07-05T10:25:21Z</time></trkpt><trkpt lat="51.9265979994" lon="-2.0428506844"><ele>34.14</ele><time>2023-07-05T10:25:29Z</time></trkpt><trkpt lat="51.9267442636" lon="-2.0429144707"><ele>33.64</ele><time>2023-07-05T10:25:44Z</time></trkpt><trkpt lat="51.9267670624" lon="-2.0429143868"><ele>33.53</ele><time>2023-07-05T10:25:47Z</time></trkpt><trkpt lat="51.9268212933" lon="-2.0429460704"><ele>33.50</ele><time>2023-07-05T10:25:52Z</time></trkpt><trkpt lat="51.9268551562" lon="-2.0429600682"><ele>33.46</ele><time>2023-07-05T10:25:55Z</time></trkpt><trkpt lat="51.9268979877" lon="-2.0430329908"><ele>32.93</ele><time>2023-07-05T10:26:07Z</time></trkpt><trkpt lat="51.9268676452" lon="-2.0430952683"><ele>32.49</ele><time>2023-07-05T10:26:12Z</time></trkpt><trkpt lat="51.9267388992" lon="-2.0431455597"><ele>32.36</ele><time>2023-07-05T10:26:28Z</time></trkpt><trkpt lat="51.9266588520" lon="-2.0431274548"><ele>33.01</ele><time>2023-07-05T10:26:40Z</time></trkpt><trkpt lat="51.9265772123" lon="-2.0431172289"><ele>33.25</ele><time>2023-07-05T10:26:52Z</time></trkpt><trkpt lat="51.9264705107" lon="-2.0430970285"><ele>33.05</ele><time>2023-07-05T10:27:07Z</time></trkpt><trkpt lat="51.9263667427" lon="-2.0430769119"><ele>33.06</ele><time>2023-07-05T10:27:21Z</time></trkpt><trkpt lat="51.9262704346" lon="-2.0430660993"><ele>32.95</ele><time>2023-07-05T10:27:35Z</time></trkpt><trkpt lat="51.9262642320" lon="-2.0430617407"><ele>32.93</ele><time>2023-07-05T10:27:36Z</time></trkpt><trkpt lat="51.9261545129" lon="-2.0430774987"><ele>33.10</ele><time>2023-07-05T10:27:51Z</time></trkpt><trkpt lat="51.9261266012" lon="-2.0430932567"><ele>33.19</ele><time>2023-07-05T10:27:55Z</time></trkpt><trkpt lat="51.9261082448" lon="-2.0431157202"><ele>33.19</ele><time>2023-07-05T10:27:58Z</time></trkpt><trkpt lat="51.9260227494" lon="-2.0432142075"><ele>32.79</ele><time>2023-07-05T10:28:12Z</time></trkpt><trkpt lat="51.9259423669" lon="-2.0433409419"><ele>31.90</ele><time>2023-07-05T10:28:27Z</time></trkpt><trkpt lat="51.9258794188" lon="-2.0434462186"><ele>31.04</ele><time>2023-07-05T10:28:38Z</time></trkpt><trkpt lat="51.9257979468" lon="-2.0435853582"><ele>30.47</ele><time>2023-07-05T10:28:52Z</time></trkpt><trkpt lat="51.9257660955" lon="-2.0436359849"><ele>29.94</ele><time>2023-07-05T10:28:58Z</time></trkpt><trkpt lat="51.9256726373" lon="-2.0437727775"><ele>29.14</ele><time>2023-07-05T10:29:13Z</time></trkpt><trkpt lat="51.9256154727" lon="-2.0438576862"><ele>28.87</ele><time>2023-07-05T10:29:22Z</time></trkpt><trkpt lat="51.9255158119" lon="-2.0439949818"><ele>28.57</ele><time>2023-07-05T10:29:37Z</time></trkpt><trkpt lat="51.9254262932" lon="-2.0441325288"><ele>28.15</ele><time>2023-07-05T10:29:51Z</time></trkpt><trkpt lat="51.9253385346" lon="-2.0442497078"><ele>27.62</ele><time>2023-07-05T10:30:05Z</time></trkpt><trkpt lat="51.9252912607" lon="-2.0443205349"><ele>27.57</ele><time>2023-07-05T10:30:13Z</time></trkpt><trkpt lat="51.9252284802" lon="-2.0444494486"><ele>27.03</ele><time>2023-07-05T10:30:26Z</time></trkpt><trkpt lat="51.9251595810" lon="-2.0445553958"><ele>26.44</ele><time>2023-07-05T10:30:38Z</time></trkpt><trkpt lat="51.9250549749" lon="-2.0446998999"><ele>26.17</ele><time>2023-07-05T10:30:53Z</time></trkpt><trkpt lat="51.9249716587" lon="-2.0448569767"><ele>25.37</ele><time>2023-07-05T10:31:08Z</time></trkpt><trkpt lat="51.9249426574" lon="-2.0450123772"><ele>24.92</ele><time>2023-07-05T10:31:21Z</time></trkpt><trkpt lat="51.9249262288" lon="-2.0450623333"><ele>24.14</ele><time>2023-07-05T10:31:38Z</time></trkpt><trkpt lat="51.9248988200" lon="-2.0451434702"><ele>24.27</ele><time>2023-07-05T10:31:52Z</time></trkpt><trkpt lat="51.9248657953" lon="-2.0452537760"><ele>23.99</ele><time>2023-07-05T10:32:05Z</time></trkpt><trkpt lat="51.9248520490" lon="-2.0453061629"><ele>23.96</ele><time>2023-07-05T10:32:11Z</time></trkpt><trkpt lat="51.9248017576" lon="-2.0454800874"><ele>23.94</ele><time>2023-07-05T10:32:26Z</time></trkpt><trkpt lat="51.9247785397" lon="-2.0455602184"><ele>23.69</ele><time>2023-07-05T10:32:33Z</time></trkpt><trkpt lat="51.9247574173" lon="-2.0456395950"><ele>23.47</ele><time>2023-07-05T10:32:40Z</time></trkpt><trkpt lat="51.9247314334" lon="-2.0457163732"><ele>23.11</ele><time>2023-07-05T10:32:47Z</time></trkpt><trkpt lat="51.9246863388" lon="-2.0458115079"><ele>22.82</ele><time>2023-07-05T10:32:57Z</time></trkpt><trkpt lat="51.9246399030" lon="-2.0459596161"><ele>22.70</ele><time>2023-07-05T10:33:11Z</time></trkpt><trkpt lat="51.9246147573" lon="-2.0460889488"><ele>22.45</ele><time>2023-07-05T10:33:21Z</time></trkpt><trkpt lat="51.9245837443" lon="-2.0462022722"><ele>22.20</ele><time>2023-07-05T10:33:31Z</time></trkpt><trkpt lat="51.9245379791" lon="-2.0463345386"><ele>21.96</ele><time>2023-07-05T10:33:44Z</time></trkpt><trkpt lat="51.9244978298" lon="-2.0464845747"><ele>21.63</ele><time>2023-07-05T10:33:59Z</time></trkpt><trkpt lat="51.9244655594" lon="-2.0466281567"><ele>20.91</ele><time>2023-07-05T10:34:12Z</time></trkpt><trkpt lat="51.9244411681" lon="-2.0467491914"><ele>20.73</ele><time>2023-07-05T10:34:23Z</time></trkpt><trkpt lat="51.9243984204" lon="-2.0468989760"><ele>20.22</ele><time>2023-07-05T10:34:37Z</time></trkpt><trkpt lat="51.9243510626" lon="-2.0470297337"><ele>19.75</ele><time>2023-07-05T10:34:50Z</time></trkpt><trkpt lat="51.9243371487" lon="-2.0470547117"><ele>19.65</ele><time>2023-07-05T10:34:53Z</time></trkpt><trkpt lat="51.9242928922" lon="-2.0471673645"><ele>19.34</ele><time>2023-07-05T10:35:06Z</time></trkpt><trkpt lat="51.9242553413" lon="-2.0473051630"><ele>18.95</ele><time>2023-07-05T10:35:20Z</time></trkpt><trkpt lat="51.9242286030" lon="-2.0474065002"><ele>18.58</ele><time>2023-07-05T10:35:29Z</time></trkpt><trkpt lat="51.9242178742" lon="-2.0474519301"><ele>18.49</ele><time>2023-07-05T10:35:33Z</time></trkpt><trkpt lat="51.9241816644" lon="-2.0475872979"><ele>18.30</ele><time>2023-07-05T10:35:48Z</time></trkpt><trkpt lat="51.9241677504" lon="-2.0476307161"><ele>18.20</ele><time>2023-07-05T10:35:52Z</time></trkpt><trkpt lat="51.9241162017" lon="-2.0477732085"><ele>17.81</ele><time>2023-07-05T10:36:06Z</time></trkpt><trkpt lat="51.9240885414" lon="-2.0478183031"><ele>17.78</ele><time>2023-07-05T10:36:11Z</time></trkpt><trkpt lat="51.9240311254" lon="-2.0479325484"><ele>17.34</ele><time>2023-07-05T10:36:24Z</time></trkpt><trkpt lat="51.9239460491" lon="-2.0480617136"><ele>16.52</ele><time>2023-07-05T10:36:38Z</time></trkpt><trkpt lat="51.9238473941" lon="-2.0480967499"><ele>15.77</ele><time>2023-07-05T10:36:52Z</time></trkpt><trkpt lat="51.9237727951" lon="-2.0480791479"><ele>15.52</ele><time>2023-07-05T10:37:10Z</time></trkpt><trkpt lat="51.9235904887" lon="-2.0481203869"><ele>14.55</ele><time>2023-07-05T10:37:32Z</time></trkpt><trkpt lat="51.9235006347" lon="-2.0481638890"><ele>14.34</ele><time>2023-07-05T10:37:43Z</time></trkpt><trkpt lat="51.9234593119" lon="-2.0482016914"><ele>13.39</ele><time>2023-07-05T10:37:59Z</time></trkpt><trkpt lat="51.9234108645" lon="-2.0482536592"><ele>13.40</ele><time>2023-07-05T10:38:18Z</time></trkpt><trkpt lat="51.9232931826" lon="-2.0483047888"><ele>13.38</ele><time>2023-07-05T10:38:33Z</time></trkpt><trkpt lat="51.9231848884" lon="-2.0482263342"><ele>13.75</ele><time>2023-07-05T10:38:48Z</time></trkpt><trkpt lat="51.9231033325" lon="-2.0481650624"><ele>14.55</ele><time>2023-07-05T10:39:00Z</time></trkpt><trkpt lat="51.9230625965" lon="-2.0481464546"><ele>14.91</ele><time>2023-07-05T10:39:06Z</time></trkpt><trkpt lat="51.9229480159" lon="-2.0481674932"><ele>15.46</ele><time>2023-07-05T10:39:21Z</time></trkpt><trkpt lat="51.9229244627" lon="-2.0481807366"><ele>15.47</ele><time>2023-07-05T10:39:24Z</time></trkpt><trkpt lat="51.9228160847" lon="-2.0482482947"><ele>15.69</ele><time>2023-07-05T10:39:39Z</time></trkpt><trkpt lat="51.9227958005" lon="-2.0482653938"><ele>15.75</ele><time>2023-07-05T10:39:42Z</time></trkpt><trkpt lat="51.9227144122" lon="-2.0483187865"><ele>15.72</ele><time>2023-07-05T10:39:53Z</time></trkpt><trkpt lat="51.9226152543" lon="-2.0484015159"><ele>15.86</ele><time>2023-07-05T10:40:06Z</time></trkpt><trkpt lat="51.9225298427" lon="-2.0484821498"><ele>16.38</ele><time>2023-07-05T10:40:19Z</time></trkpt><trkpt lat="51.9224595185" lon="-2.0485813916"><ele>16.83</ele><time>2023-07-05T10:40:32Z</time></trkpt><trkpt lat="51.9223871827" lon="-2.0486522187"><ele>17.59</ele><time>2023-07-05T10:40:44Z</time></trkpt><trkpt lat="51.9222816546" lon="-2.0487420727"><ele>17.65</ele><time>2023-07-05T10:40:59Z</time></trkpt><trkpt lat="51.9222109951" lon="-2.0488070324"><ele>17.94</ele><time>2023-07-05T10:41:10Z</time></trkpt><trkpt lat="51.9221483823" lon="-2.0488843974"><ele>18.01</ele><time>2023-07-05T10:41:20Z</time></trkpt><trkpt lat="51.9220550079" lon="-2.0489903446"><ele>17.80</ele><time>2023-07-05T10:41:36Z</time></trkpt><trkpt lat="51.9219693448" lon="-2.0490864851"><ele>17.66</ele><time>2023-07-05T10:41:49Z</time></trkpt><trkpt lat="51.9219631422" lon="-2.0490903407"><ele>17.62</ele><time>2023-07-05T10:41:50Z</time></trkpt><trkpt lat="51.9219083246" lon="-2.0491428953"><ele>17.28</ele><time>2023-07-05T10:41:58Z</time></trkpt><trkpt lat="51.9218304567" lon="-2.0492506865"><ele>16.76</ele><time>2023-07-05T10:42:11Z</time></trkpt><trkpt lat="51.9217969291" lon="-2.0493300632"><ele>16.17</ele><time>2023-07-05T10:42:20Z</time></trkpt><trkpt lat="51.9217284489" lon="-2.0494468231"><ele>15.59</ele><time>2023-07-05T10:42:33Z</time></trkpt><trkpt lat="51.9217133615" lon="-2.0494546182"><ele>15.55</ele><time>2023-07-05T10:42:35Z</time></trkpt><trkpt lat="51.9216353260" lon="-2.0495061669"><ele>15.19</ele><time>2023-07-05T10:42:49Z</time></trkpt><trkpt lat="51.9215859566" lon="-2.0495807659"><ele>15.00</ele><time>2023-07-05T10:43:08Z</time></trkpt><trkpt lat="51.9214781653" lon="-2.0496063307"><ele>15.00</ele><time>2023-07-05T10:43:26Z</time></trkpt><trkpt lat="51.9214177318" lon="-2.0495136268"><ele>14.40</ele><time>2023-07-05T10:43:43Z</time></trkpt><trkpt lat="51.9213396963" lon="-2.0493925922"><ele>14.35</ele><time>2023-07-05T10:43:57Z</time></trkpt><trkpt lat="51.9212477468" lon="-2.0492361020"><ele>14.80</ele><time>2023-07-05T10:44:12Z</time></trkpt><trkpt lat="51.9211665262" lon="-2.0491146483"><ele>15.05</ele><time>2023-07-05T10:44:27Z</time></trkpt><trkpt lat="51.9210808631" lon="-2.0489817113"><ele>15.30</ele><time>2023-07-05T10:44:43Z</time></trkpt><trkpt lat="51.9210088626" lon="-2.0488545578"><ele>15.33</ele><time>2023-07-05T10:44:58Z</time></trkpt><trkpt lat="51.9209547155" lon="-2.0487238001"><ele>15.61</ele><time>2023-07-05T10:45:12Z</time></trkpt><trkpt lat="51.9208821282" lon="-2.0485794637"><ele>15.69</ele><time>2023-07-05T10:45:27Z</time></trkpt><trkpt lat="51.9208176713" lon="-2.0484510530"><ele>15.94</ele><time>2023-07-05T10:45:41Z</time></trkpt><trkpt lat="51.9207721576" lon="-2.0483420044"><ele>15.95</ele><time>2023-07-05T10:45:53Z</time></trkpt><trkpt lat="51.9206956308" lon="-2.0482314471"><ele>16.42</ele><time>2023-07-05T10:46:07Z</time></trkpt><trkpt lat="51.9206034299" lon="-2.0481511485"><ele>16.67</ele><time>2023-07-05T10:46:20Z</time></trkpt><trkpt lat="51.9204899389" lon="-2.0480847638"><ele>16.85</ele><time>2023-07-05T10:46:37Z</time></trkpt><trkpt lat="51.9203816447" lon="-2.0480553433"><ele>18.19</ele><time>2023-07-05T10:46:52Z</time></trkpt><trkpt lat="51.9202790502" lon="-2.0480198879"><ele>18.71</ele><time>2023-07-05T10:47:08Z</time></trkpt><trkpt lat="51.9202259928" lon="-2.0479944907"><ele>18.88</ele><time>2023-07-05T10:47:27Z</time></trkpt><trkpt lat="51.9201683253" lon="-2.0479203109"><ele>18.37</ele><time>2023-07-05T10:47:43Z</time></trkpt><trkpt lat="51.9200498052" lon="-2.0479207300"><ele>18.53</ele><time>2023-07-05T10:48:00Z</time></trkpt><trkpt lat="51.9198993500" lon="-2.0479473844"><ele>19.20</ele><time>2023-07-05T10:48:20Z</time></trkpt><trkpt lat="51.9197303709" lon="-2.0479662437"><ele>19.31</ele><time>2023-07-05T10:48:42Z</time></trkpt><trkpt lat="51.9196342304" lon="-2.0480237436"><ele>19.61</ele><time>2023-07-05T10:48:58Z</time></trkpt><trkpt lat="51.9196137786" lon="-2.0480485540"><ele>20.37</ele><time>2023-07-05T10:49:34Z</time></trkpt><trkpt lat="51.9195883814" lon="-2.0480693411"><ele>20.27</ele><time>2023-07-05T10:50:00Z</time></trkpt><trkpt lat="51.9195456337" lon="-2.0480850153"><ele>20.27</ele><time>2023-07-05T10:50:27Z</time></trkpt><trkpt lat="51.9195502438" lon="-2.0480876137"><ele>20.27</ele><time>2023-07-05T10:50:55Z</time></trkpt><trkpt lat="51.9195100944" lon="-2.0481214765"><ele>20.27</ele><time>2023-07-05T10:51:25Z</time></trkpt><trkpt lat="51.9194861222" lon="-2.0481337141"><ele>20.27</ele><time>2023-07-05T10:51:27Z</time></trkpt><trkpt lat="51.9194361661" lon="-2.0481565967"><ele>20.27</ele><time>2023-07-05T10:51:31Z</time></trkpt><trkpt lat="51.9193747267" lon="-2.0481923036"><ele>20.84</ele><time>2023-07-05T10:51:38Z</time></trkpt><trkpt lat="51.9192165602" lon="-2.0482576825"><ele>21.48</ele><time>2023-07-05T10:51:53Z</time></trkpt><trkpt lat="51.9190138858" lon="-2.0483088121"><ele>22.30</ele><time>2023-07-05T10:52:09Z</time></trkpt><trkpt lat="51.9188332558" lon="-2.0483495481"><ele>22.44</ele><time>2023-07-05T10:52:23Z</time></trkpt><trkpt lat="51.9187092036" lon="-2.0484410785"><ele>22.69</ele><time>2023-07-05T10:52:37Z</time></trkpt><trkpt lat="51.9186839741" lon="-2.0484394021"><ele>22.67</ele><time>2023-07-05T10:52:39Z</time></trkpt><trkpt lat="51.9186376221" lon="-2.0484533999"><ele>22.53</ele><time>2023-07-05T10:52:43Z</time></trkpt><trkpt lat="51.9185347762" lon="-2.0484855864"><ele>22.46</ele><time>2023-07-05T10:52:52Z</time></trkpt><trkpt lat="51.9184722472" lon="-2.0484932978"><ele>22.20</ele><time>2023-07-05T10:52:56Z</time></trkpt><trkpt lat="51.9182963111" lon="-2.0485012606"><ele>21.46</ele><time>2023-07-05T10:53:11Z</time></trkpt><trkpt lat="51.9181909505" lon="-2.0485110674"><ele>20.92</ele><time>2023-07-05T10:53:21Z</time></trkpt><trkpt lat="51.9180290960" lon="-2.0485146716"><ele>20.26</ele><time>2023-07-05T10:53:36Z</time></trkpt><trkpt lat="51.9179080613" lon="-2.0485458523"><ele>19.55</ele><time>2023-07-05T10:53:53Z</time></trkpt><trkpt lat="51.9177655689" lon="-2.0485489536"><ele>19.22</ele><time>2023-07-05T10:54:12Z</time></trkpt><trkpt lat="51.9176344760" lon="-2.0485453494"><ele>18.34</ele><time>2023-07-05T10:54:30Z</time></trkpt><trkpt lat="51.9175699353" lon="-2.0485635381"><ele>17.86</ele><time>2023-07-05T10:54:50Z</time></trkpt><trkpt lat="51.9174644910" lon="-2.0486048609"><ele>17.80</ele><time>2023-07-05T10:55:10Z</time></trkpt><trkpt lat="51.9173232559" lon="-2.0486515481"><ele>17.82</ele><time>2023-07-05T10:55:28Z</time></trkpt><trkpt lat="51.9173120242" lon="-2.0486533083"><ele>17.82</ele><time>2023-07-05T10:55:29Z</time></trkpt><trkpt lat="51.9172745571" lon="-2.0486574154"><ele>17.82</ele><time>2023-07-05T10:55:33Z</time></trkpt><trkpt lat="51.9171762373" lon="-2.0486930385"><ele>17.56</ele><time>2023-07-05T10:55:46Z</time></trkpt><trkpt lat="51.9170736428" lon="-2.0487430785"><ele>17.45</ele><time>2023-07-05T10:56:00Z</time></trkpt><trkpt lat="51.9169845432" lon="-2.0487823058"><ele>17.39</ele><time>2023-07-05T10:56:13Z</time></trkpt><trkpt lat="51.9169485848" lon="-2.0488056913"><ele>17.23</ele><time>2023-07-05T10:56:37Z</time></trkpt><trkpt lat="51.9168981258" lon="-2.0488077868"><ele>17.23</ele><time>2023-07-05T10:56:56Z</time></trkpt><trkpt lat="51.9167811982" lon="-2.0488463435"><ele>17.23</ele><time>2023-07-05T10:57:13Z</time></trkpt><trkpt lat="51.9166563079" lon="-2.0489071961"><ele>16.59</ele><time>2023-07-05T10:57:31Z</time></trkpt><trkpt lat="51.9166318327" lon="-2.0489048492"><ele>16.21</ele><time>2023-07-05T10:57:50Z</time></trkpt><trkpt lat="51.9165488519" lon="-2.0489142369"><ele>16.25</ele><time>2023-07-05T10:58:08Z</time></trkpt><trkpt lat="51.9164662901" lon="-2.0489434060"><ele>16.63</ele><time>2023-07-05T10:58:24Z</time></trkpt><trkpt lat="51.9163776096" lon="-2.0489146560"><ele>16.28</ele><time>2023-07-05T10:58:39Z</time></trkpt><trkpt lat="51.9162927009" lon="-2.0489250496"><ele>16.28</ele><time>2023-07-05T10:58:54Z</time></trkpt><trkpt lat="51.9161608536" lon="-2.0489796158"><ele>16.68</ele><time>2023-07-05T10:59:13Z</time></trkpt><trkpt lat="51.9160000049" lon="-2.0490476768"><ele>17.27</ele><time>2023-07-05T10:59:33Z</time></trkpt><trkpt lat="51.9158921298" lon="-2.0490728226"><ele>17.75</ele><time>2023-07-05T10:59:51Z</time></trkpt><trkpt lat="51.9157864340" lon="-2.0490571484"><ele>17.90</ele><time>2023-07-05T11:00:06Z</time></trkpt><trkpt lat="51.9156642258" lon="-2.0490610041"><ele>17.96</ele><time>2023-07-05T11:00:20Z</time></trkpt><trkpt lat="51.9155410118" lon="-2.0490341820"><ele>18.00</ele><time>2023-07-05T11:00:33Z</time></trkpt><trkpt lat="51.9154911395" lon="-2.0489577390"><ele>18.02</ele><time>2023-07-05T11:00:37Z</time></trkpt><trkpt lat="51.9154427759" lon="-2.0489251334"><ele>18.15</ele><time>2023-07-05T11:00:41Z</time></trkpt><trkpt lat="51.9152998645" lon="-2.0489252172"><ele>18.24</ele><time>2023-07-05T11:00:57Z</time></trkpt><trkpt lat="51.9152800832" lon="-2.0489119738"><ele>18.72</ele><time>2023-07-05T11:01:24Z</time></trkpt><trkpt lat="51.9152875431" lon="-2.0488892589"><ele>18.62</ele><time>2023-07-05T11:01:45Z</time></trkpt></trkseg></trk></gpx>